Terminal Aerodrome Forecast
Issued by NWS

Home | Current Version | Previous Version | Text Only | Print | Product List | Glossary On
Versions: 1 2 3 4 5 6 7 8 9 10 11 12 13 14 15 16 17 18
000
FTUS45 KGJT 230520
TAFVEL
TAF
KVEL 230520Z 2306/2406 30004KT P6SM FEW250
     FM231700 25005KT P6SM FEW140 BKN250
     FM240100 29004KT P6SM SCT250=

USA.gov is the U.S. government's official web portal to all federal, state and local government web resources and services.